Time;durP1;ratioP1;P1;durP2;ratioP2;P2;SDS_P1;SDS_P2;PMS_P1;PMS_P2;Temp;Humidity;BMP_temperature;BMP_pressure;BME280_temperature;BME280_humidity;BME280_pressure;Samples;Min_cycle;Max_cycle;Signal;HPM_P1;HPM_P2
2023/07/16 00:02:24;;;;;;;6.85;1.33;;;17.30;96.00;;;;;;4988476;28;86365;-81
2023/07/16 00:04:50;;;;;;;5.75;1.45;;;17.30;96.10;;;;;;4988054;28;86542;-82
2023/07/16 00:07:17;;;;;;;7.18;1.50;;;17.20;96.20;;;;;;4991629;28;88074;-81
2023/07/16 00:09:43;;;;;;;6.32;1.17;;;17.20;96.40;;;;;;4986856;28;89854;-81
2023/07/16 00:12:09;;;;;;;5.13;1.50;;;17.10;96.40;;;;;;4988296;28;86547;-81
2023/07/16 00:14:34;;;;;;;7.25;1.80;;;17.10;96.50;;;;;;4989621;28;86411;-82
2023/07/16 00:17:00;;;;;;;5.88;1.67;;;17.10;96.60;;;;;;4988495;28;90470;-82
2023/07/16 00:19:26;;;;;;;10.98;2.10;;;17.10;96.60;;;;;;4988057;28;89750;-82
2023/07/16 00:21:51;;;;;;;5.47;1.42;;;17.10;96.70;;;;;;4988023;28;86405;-81
2023/07/16 00:24:17;;;;;;;9.02;1.20;;;17.00;96.70;;;;;;4980565;28;86590;-81
2023/07/16 00:26:42;;;;;;;3.78;1.48;;;17.00;96.80;;;;;;4986955;28;90586;-81
2023/07/16 00:29:08;;;;;;;6.13;1.60;;;17.00;96.80;;;;;;4990324;28;87598;-83
2023/07/16 00:31:34;;;;;;;6.97;1.92;;;17.00;96.80;;;;;;4987119;28;86273;-81
2023/07/16 00:34:00;;;;;;;4.65;1.63;;;17.00;96.90;;;;;;4987314;28;87200;-81
2023/07/16 00:36:25;;;;;;;10.68;1.70;;;17.00;97.00;;;;;;4980136;28;90839;-82
2023/07/16 00:38:51;;;;;;;5.95;1.50;;;16.90;97.00;;;;;;4989166;28;89867;-82
2023/07/16 00:41:16;;;;;;;6.57;1.95;;;16.90;97.00;;;;;;4986298;28;86684;-81
2023/07/16 00:43:42;;;;;;;6.30;1.50;;;16.90;97.00;;;;;;4989922;28;85973;-82
2023/07/16 00:46:08;;;;;;;5.38;1.83;;;16.90;97.30;;;;;;4987903;28;90316;-83
2023/07/16 00:48:34;;;;;;;6.97;1.88;;;16.90;97.30;;;;;;4987893;28;87181;-82
2023/07/16 00:51:01;;;;;;;8.35;2.05;;;16.90;97.50;;;;;;4988720;28;86452;-82
2023/07/16 00:53:27;;;;;;;11.77;1.90;;;16.80;97.60;;;;;;4981056;28;86232;-81
2023/07/16 00:55:53;;;;;;;6.53;2.28;;;16.80;97.60;;;;;;5004077;28;89454;-83
2023/07/16 00:58:18;;;;;;;8.57;1.75;;;16.80;97.70;;;;;;4988202;28;89626;-82
2023/07/16 01:00:44;;;;;;;7.93;2.05;;;16.80;97.80;;;;;;4989221;28;86815;-82
2023/07/16 01:03:12;;;;;;;8.85;2.17;;;16.80;97.80;;;;;;4988997;28;86347;-82
2023/07/16 01:05:51;;;;;;;7.45;1.92;;;16.80;97.90;;;;;;4990124;28;89027;-83
2023/07/16 01:08:41;;;;;;;5.85;2.03;;;16.80;97.80;;;;;;5005447;28;92960;-83
2023/07/16 01:11:07;;;;;;;5.35;1.85;;;16.80;97.70;;;;;;4988884;28;90521;-82
2023/07/16 01:13:33;;;;;;;5.90;2.25;;;16.80;97.50;;;;;;4988842;28;86309;-82
2023/07/16 01:15:59;;;;;;;4.30;1.90;;;16.80;97.60;;;;;;4986950;28;90257;-81
2023/07/16 01:18:25;;;;;;;6.28;1.75;;;16.80;97.70;;;;;;4987163;28;87489;-82
2023/07/16 01:20:50;;;;;;;7.55;1.85;;;16.80;97.60;;;;;;4989004;28;94126;-82
2023/07/16 01:23:22;;;;;;;6.15;2.00;;;16.80;97.70;;;;;;4988191;28;86124;-82
2023/07/16 01:26:10;;;;;;;5.75;1.63;;;16.70;97.70;;;;;;5002397;28;90615;-82
2023/07/16 01:28:55;;;;;;;9.27;1.77;;;16.70;97.80;;;;;;4980889;28;89880;-82
2023/07/16 01:31:22;;;;;;;5.35;2.05;;;16.70;98.10;;;;;;5002549;28;86705;-81
2023/07/16 01:33:50;;;;;;;13.07;2.17;;;16.70;98.10;;;;;;4990144;28;86451;-83
2023/07/16 01:36:18;;;;;;;7.30;1.88;;;16.60;98.00;;;;;;4987916;28;89168;-82
2023/07/16 01:38:44;;;;;;;8.43;2.30;;;16.60;98.20;;;;;;4987302;28;87725;-82
2023/07/16 01:41:11;;;;;;;3.88;1.90;;;16.60;98.40;;;;;;4990515;28;86207;-82
2023/07/16 01:43:36;;;;;;;9.38;2.15;;;16.60;98.30;;;;;;4980624;28;86184;-82
2023/07/16 01:46:02;;;;;;;12.68;2.03;;;16.60;98.10;;;;;;4988170;28;90145;-81
2023/07/16 01:48:34;;;;;;;8.68;1.90;;;16.50;97.70;;;;;;4989750;28;87145;-82
2023/07/16 01:50:59;;;;;;;5.85;1.80;;;16.50;97.20;;;;;;4990429;28;85991;-83
2023/07/16 01:53:25;;;;;;;9.02;2.17;;;16.50;97.00;;;;;;4990598;28;85870;-83
2023/07/16 01:55:51;;;;;;;6.05;1.58;;;16.60;96.90;;;;;;4988336;28;90577;-81
2023/07/16 01:58:17;;;;;;;7.25;1.80;;;16.60;96.70;;;;;;5003424;28;89913;-83
2023/07/16 02:00:43;;;;;;;9.65;2.35;;;16.60;96.50;;;;;;4987059;28;86455;-82
2023/07/16 02:03:08;;;;;;;11.25;2.35;;;16.60;96.20;;;;;;4986140;28;86149;-83
2023/07/16 02:05:34;;;;;;;8.38;1.83;;;16.60;96.10;;;;;;4987403;28;90519;-82
2023/07/16 02:07:59;;;;;;;7.82;1.70;;;16.50;95.60;;;;;;4984148;28;89638;-82
2023/07/16 02:10:25;;;;;;;14.73;2.60;;;16.50;95.30;;;;;;4985443;28;86366;-82
2023/07/16 02:12:51;;;;;;;7.32;1.83;;;16.50;95.30;;;;;;4986507;28;86163;-81
2023/07/16 02:15:17;;;;;;;7.43;1.98;;;16.50;95.30;;;;;;4987113;28;89499;-83
2023/07/16 02:17:44;;;;;;;7.90;1.80;;;16.50;95.20;;;;;;5002098;28;88656;-83
2023/07/16 02:20:13;;;;;;;6.50;2.00;;;16.50;95.20;;;;;;4986151;28;86724;-83
2023/07/16 02:22:39;;;;;;;11.02;2.38;;;16.40;95.00;;;;;;4987790;28;86479;-84
2023/07/16 02:25:05;;;;;;;9.45;2.22;;;16.40;94.80;;;;;;4986227;28;89721;-84
2023/07/16 02:27:31;;;;;;;9.13;2.47;;;16.30;94.70;;;;;;4990244;28;87550;-82
2023/07/16 02:29:57;;;;;;;8.60;2.35;;;16.30;94.30;;;;;;4985914;28;86422;-82
2023/07/16 02:32:22;;;;;;;8.90;2.45;;;16.30;93.00;;;;;;4986354;28;86232;-84
2023/07/16 02:34:48;;;;;;;9.60;2.58;;;16.30;92.90;;;;;;4988500;28;87958;-84
2023/07/16 02:37:14;;;;;;;10.43;2.38;;;16.30;92.90;;;;;;4988410;28;89802;-83
2023/07/16 02:39:42;;;;;;;8.57;2.20;;;16.30;92.80;;;;;;4985601;28;87062;-84
2023/07/16 02:42:08;;;;;;;9.02;2.97;;;16.30;92.90;;;;;;4985565;28;86210;-83
2023/07/16 02:44:35;;;;;;;6.30;2.10;;;16.20;93.20;;;;;;4987693;28;87037;-84
2023/07/16 02:47:01;;;;;;;12.95;2.60;;;16.20;92.90;;;;;;4984878;28;90415;-85
2023/07/16 02:49:27;;;;;;;6.63;2.17;;;16.20;93.00;;;;;;4985246;28;86522;-82
2023/07/16 02:51:52;;;;;;;10.02;3.03;;;16.10;93.00;;;;;;4987030;28;86048;-84
2023/07/16 02:54:18;;;;;;;14.70;2.85;;;16.10;93.40;;;;;;4983787;28;90130;-83
2023/07/16 02:56:43;;;;;;;12.65;2.88;;;16.00;93.20;;;;;;4986427;28;89963;-82
2023/07/16 02:59:09;;;;;;;8.07;2.42;;;16.00;93.30;;;;;;4989806;28;86312;-84
2023/07/16 03:01:35;;;;;;;15.63;3.38;;;16.00;93.60;;;;;;4984764;28;86741;-82
2023/07/16 03:04:00;;;;;;;11.20;2.55;;;15.90;93.90;;;;;;4985340;28;90704;-83
2023/07/16 03:06:26;;;;;;;14.80;2.65;;;15.90;94.10;;;;;;4985080;28;89507;-83
2023/07/16 03:08:51;;;;;;;13.48;2.50;;;15.80;94.20;;;;;;4978716;28;87186;-83
2023/07/16 03:11:17;;;;;;;9.40;2.95;;;15.70;94.20;;;;;;5001508;28;86930;-82
2023/07/16 03:13:44;;;;;;;7.35;2.58;;;15.60;94.30;;;;;;4986104;28;89185;-82
2023/07/16 03:16:13;;;;;;;12.75;2.83;;;15.60;94.00;;;;;;4983900;28;89375;-82
2023/07/16 03:18:40;;;;;;;9.90;2.92;;;15.60;93.50;;;;;;4980188;28;86751;-82
2023/07/16 03:21:12;;;;;;;16.08;3.15;;;15.60;93.60;;;;;;4986800;28;86514;-82
2023/07/16 03:23:38;;;;;;;12.10;3.15;;;15.60;93.40;;;;;;4989673;28;90100;-81
2023/07/16 03:26:07;;;;;;;9.63;2.20;;;15.60;92.90;;;;;;4997096;28;89289;-82
2023/07/16 03:28:33;;;;;;;9.48;2.70;;;15.60;93.10;;;;;;4953221;28;86784;-81
2023/07/16 03:30:59;;;;;;;7.70;2.50;;;15.60;93.00;;;;;;4988465;28;86564;-83
2023/07/16 03:33:30;;;;;;;19.00;3.08;;;15.60;93.10;;;;;;4990282;28;89680;-82
2023/07/16 03:35:57;;;;;;;8.02;2.90;;;15.60;93.10;;;;;;4993345;28;88542;-83
2023/07/16 03:38:24;;;;;;;12.02;2.72;;;15.60;93.20;;;;;;4990091;28;86378;-83
2023/07/16 03:40:50;;;;;;;16.95;3.92;;;15.50;93.10;;;;;;4989565;28;86317;-83
2023/07/16 03:43:19;;;;;;;13.50;3.05;;;15.50;93.30;;;;;;4989726;28;89048;-81
2023/07/16 03:45:50;;;;;;;7.25;2.53;;;15.50;93.70;;;;;;4972905;28;88425;-82
2023/07/16 03:48:16;;;;;;;11.20;2.72;;;15.40;93.80;;;;;;4973034;28;86238;-81
2023/07/16 03:50:46;;;;;;;18.55;3.60;;;15.40;93.90;;;;;;4973448;28;86366;-81
2023/07/16 03:53:16;;;;;;;12.05;2.70;;;15.30;94.00;;;;;;4984325;28;88697;-81
2023/07/16 03:55:44;;;;;;;16.60;3.33;;;15.30;94.20;;;;;;4983078;28;89711;-81
2023/07/16 03:58:10;;;;;;;16.55;2.88;;;15.20;94.40;;;;;;4982277;28;86308;-81
2023/07/16 04:00:41;;;;;;;9.50;2.78;;;15.20;94.50;;;;;;4984219;28;86264;-81
2023/07/16 04:03:07;;;;;;;14.25;3.15;;;15.20;94.50;;;;;;4984989;28;90006;-81
2023/07/16 04:05:33;;;;;;;12.68;3.20;;;15.20;94.60;;;;;;4981229;28;88571;-82
2023/07/16 04:08:08;;;;;;;7.28;2.63;;;15.10;94.70;;;;;;4985638;28;86505;-82
2023/07/16 04:10:37;;;;;;;13.15;2.60;;;15.10;94.70;;;;;;4974077;28;86214;-82
2023/07/16 04:13:10;;;;;;;12.90;2.35;;;15.10;94.60;;;;;;5008934;28;86163;-82
2023/07/16 04:15:44;;;;;;;10.23;2.60;;;15.10;94.80;;;;;;5004654;28;88517;-81
2023/07/16 04:18:11;;;;;;;12.90;2.95;;;15.10;94.50;;;;;;5008072;28;86054;-82
2023/07/16 04:20:53;;;;;;;12.63;3.13;;;15.10;94.40;;;;;;5007090;28;86252;-81
2023/07/16 04:23:21;;;;;;;;;;;15.20;94.00;;;;;;4999530;28;91784;-81
2023/07/16 04:25:53;;;;;;;16.65;3.80;;;15.20;93.70;;;;;;5006566;28;88472;-82
2023/07/16 04:28:24;;;;;;;9.75;3.08;;;15.20;93.40;;;;;;5004253;28;86518;-82
2023/07/16 04:30:54;;;;;;;13.18;3.90;;;15.30;93.00;;;;;;5003769;28;86199;-82
2023/07/16 04:33:23;;;;;;;15.32;4.15;;;15.30;93.10;;;;;;4997753;28;87015;-82
2023/07/16 04:35:57;;;;;;;18.65;3.60;;;15.40;93.00;;;;;;4998762;28;88451;-82
2023/07/16 04:38:24;;;;;;;15.13;3.33;;;15.40;92.90;;;;;;5009781;28;85870;-82
2023/07/16 04:41:16;;;;;;;11.98;3.63;;;15.40;92.80;;;;;;5005305;28;86922;-82
2023/07/16 04:43:41;;;;;;;17.10;4.40;;;15.40;93.10;;;;;;5003938;28;93587;-81
2023/07/16 04:46:07;;;;;;;10.15;3.40;;;15.40;92.50;;;;;;5008915;28;88993;-82
2023/07/16 04:48:33;;;;;;;12.32;4.45;;;15.40;92.50;;;;;;5005916;28;86375;-82
2023/07/16 04:50:59;;;;;;;12.40;4.10;;;15.40;92.40;;;;;;5004272;28;86482;-81
2023/07/16 04:53:53;;;;;;;16.88;4.15;;;15.50;92.50;;;;;;5005902;28;90229;-82
2023/07/16 04:56:20;;;;;;;11.93;4.72;;;15.50;92.40;;;;;;5003332;28;92409;-81
2023/07/16 04:58:58;;;;;;;14.50;4.68;;;15.50;92.00;;;;;;4989578;28;86297;-82
2023/07/16 05:01:32;;;;;;;12.30;4.65;;;15.50;92.30;;;;;;5006642;28;85988;-81
2023/07/16 05:03:59;;;;;;;18.63;4.53;;;15.60;92.00;;;;;;5002636;28;88161;-82
2023/07/16 05:06:25;;;;;;;12.95;4.65;;;15.60;91.70;;;;;;5002137;28;87149;-81
2023/07/16 05:08:50;;;;;;;14.48;4.43;;;15.60;92.00;;;;;;5000503;28;86427;-81
2023/07/16 05:11:18;;;;;;;16.95;4.43;;;15.70;91.90;;;;;;5002692;28;86262;-81
2023/07/16 05:13:43;;;;;;;14.75;4.57;;;15.70;91.80;;;;;;5004465;28;88884;-81
2023/07/16 05:16:09;;;;;;;14.45;5.20;;;15.70;91.90;;;;;;5003073;28;90305;-81
2023/07/16 05:18:35;;;;;;;15.10;4.78;;;15.80;91.10;;;;;;4987520;28;86549;-81
2023/07/16 05:21:01;;;;;;;10.38;4.45;;;15.80;91.30;;;;;;4994492;28;86992;-81
2023/07/16 05:23:28;;;;;;;12.18;4.35;;;15.80;91.70;;;;;;4999231;28;89069;-80
2023/07/16 05:25:54;;;;;;;16.38;4.95;;;15.90;91.50;;;;;;4993834;28;88660;-81
2023/07/16 05:28:20;;;;;;;14.82;4.85;;;15.90;91.40;;;;;;4984584;28;86680;-81
2023/07/16 05:30:45;;;;;;;15.15;5.13;;;15.90;91.20;;;;;;4994747;28;87511;-81
2023/07/16 05:33:11;;;;;;;14.52;4.93;;;16.00;91.00;;;;;;4992770;28;86774;-82
2023/07/16 05:35:38;;;;;;;13.50;5.55;;;16.10;91.00;;;;;;4986499;28;89520;-81
2023/07/16 05:38:06;;;;;;;18.75;5.50;;;16.10;91.40;;;;;;4985241;28;86329;-81
2023/07/16 05:43:18;;;;;;;14.55;4.90;;;16.20;90.40;;;;;;4921797;28;87708;-96
2023/07/16 05:45:46;;;;;;;15.82;5.18;;;16.20;90.50;;;;;;4925063;28;85180;-95
2023/07/16 05:48:17;;;;;;;14.48;5.47;;;16.30;90.40;;;;;;4921077;28;85869;-96
2023/07/16 05:50:45;;;;;;;10.05;5.15;;;16.40;90.00;;;;;;4918353;28;86447;-96
2023/07/16 05:53:36;;;;;;;12.43;5.80;;;16.40;89.20;;;;;;4923752;28;87998;-96
2023/07/16 05:58:33;;;;;;;16.45;5.80;;;16.50;89.20;;;;;;4981771;23;111422;-96
2023/07/16 06:00:59;;;;;;;13.35;5.93;;;16.60;88.40;;;;;;4944526;28;85930;-95
2023/07/16 06:03:26;;;;;;;15.60;6.30;;;16.60;89.00;;;;;;4935572;28;88208;-95
2023/07/16 06:05:53;;;;;;;16.88;5.95;;;16.60;87.40;;;;;;4958155;28;86269;-95
2023/07/16 06:08:24;;;;;;;18.15;5.90;;;16.70;87.40;;;;;;4941214;28;85925;-95
2023/07/16 06:10:51;;;;;;;18.95;6.85;;;16.80;85.90;;;;;;4934901;28;86439;-96
2023/07/16 06:13:17;;;;;;;15.73;6.20;;;16.80;86.30;;;;;;4945205;28;87808;-94
2023/07/16 06:15:43;;;;;;;12.82;5.70;;;16.90;85.70;;;;;;4949548;28;88710;-95
2023/07/16 06:18:59;;;;;;;12.55;6.45;;;16.90;84.70;;;;;;4965319;28;86793;-96
2023/07/16 06:21:32;;;;;;;14.25;6.43;;;17.00;85.80;;;;;;4974513;28;85883;-96
2023/07/16 06:23:58;;;;;;;15.45;6.60;;;17.00;86.50;;;;;;4932239;28;88045;-95
2023/07/16 06:26:24;;;;;;;13.98;6.03;;;17.10;86.70;;;;;;4949240;28;87583;-96
2023/07/16 06:28:52;;;;;;;14.50;5.97;;;17.20;85.90;;;;;;4969149;28;85973;-95
2023/07/16 06:31:19;;;;;;;17.73;7.10;;;17.20;85.50;;;;;;4947647;28;86310;-95
2023/07/16 06:33:46;;;;;;;14.18;6.32;;;17.30;85.10;;;;;;4943429;28;89087;-94
2023/07/16 06:36:14;;;;;;;15.88;6.50;;;17.30;85.00;;;;;;4950840;28;87722;-95
2023/07/16 06:38:40;;;;;;;16.80;6.50;;;17.30;84.00;;;;;;4951976;28;86389;-96
2023/07/16 06:41:07;;;;;;;18.10;6.43;;;17.40;84.80;;;;;;4964897;28;87618;-96
2023/07/16 06:43:33;;;;;;;17.98;6.70;;;17.50;85.30;;;;;;4949407;28;86599;-96
2023/07/16 06:46:25;;;;;;;17.75;7.03;;;17.50;83.70;;;;;;4936457;28;86272;-96
2023/07/16 06:48:53;;;;;;;19.52;7.18;;;17.60;83.20;;;;;;4965054;28;86443;-96
2023/07/16 06:51:32;;;;;;;16.17;5.78;;;17.60;82.20;;;;;;4970428;28;86012;-95
2023/07/16 06:53:59;;;;;;;15.75;6.68;;;17.60;82.90;;;;;;4949635;28;88198;-95
2023/07/16 06:56:25;;;;;;;15.07;6.30;;;17.70;82.80;;;;;;4950049;28;88017;-94
2023/07/16 06:58:51;;;;;;;15.80;6.43;;;17.80;82.90;;;;;;4948883;28;85696;-95
2023/07/16 07:01:17;;;;;;;14.88;6.45;;;17.80;82.50;;;;;;4971989;28;86085;-96
2023/07/16 07:03:44;;;;;;;19.95;6.72;;;17.90;82.10;;;;;;4953986;28;88437;-96
2023/07/16 07:06:10;;;;;;;18.52;6.75;;;17.90;82.20;;;;;;4971036;28;87364;-94
2023/07/16 07:08:37;;;;;;;21.85;6.93;;;18.00;81.70;;;;;;4942945;28;85911;-95
2023/07/16 07:11:14;;;;;;;16.63;6.28;;;18.10;82.10;;;;;;4959105;28;86206;-96
2023/07/16 07:13:44;;;;;;;21.52;6.60;;;18.20;82.30;;;;;;4956079;28;88410;-95
2023/07/16 07:16:11;;;;;;;19.33;6.97;;;18.30;82.00;;;;;;4977338;28;86184;-96
2023/07/16 07:18:59;;;;;;;23.17;6.82;;;18.40;81.90;;;;;;4956923;28;86373;-96
2023/07/16 07:21:44;;;;;;;18.45;6.22;;;18.40;81.80;;;;;;4960544;28;86304;-96
2023/07/16 07:24:27;;;;;;;20.30;6.78;;;18.60;81.20;;;;;;4960344;28;87920;-96
2023/07/16 07:26:58;;;;;;;11.45;5.80;;;18.70;81.60;;;;;;4947490;28;85897;-96
2023/07/16 07:29:29;;;;;;;14.93;6.97;;;18.70;79.40;;;;;;4951544;28;85798;-96
2023/07/16 07:32:34;;;;;;;16.00;6.95;;;18.70;79.00;;;;;;4968131;28;86273;-96
2023/07/16 07:35:01;;;;;;;13.75;5.95;;;18.60;77.40;;;;;;4946433;28;89644;-95
2023/07/16 07:37:27;;;;;;;16.58;6.78;;;18.60;78.10;;;;;;4946118;28;87585;-96
2023/07/16 07:39:52;;;;;;;14.55;5.97;;;18.70;77.70;;;;;;4955951;28;86699;-96
2023/07/16 07:42:18;;;;;;;14.77;6.20;;;18.70;77.90;;;;;;4941586;28;85911;-95
2023/07/16 07:44:44;;;;;;;16.30;6.53;;;18.80;79.50;;;;;;4940393;28;87694;-94
2023/07/16 07:47:10;;;;;;;16.17;6.55;;;18.90;78.90;;;;;;4940752;28;88841;-96
2023/07/16 07:49:36;;;;;;;14.90;5.38;;;19.00;78.30;;;;;;4941486;28;86145;-94
2023/07/16 07:52:02;;;;;;;12.02;6.10;;;19.10;77.70;;;;;;4940856;28;85977;-93
2023/07/16 07:54:27;;;;;;;17.15;6.18;;;19.20;77.30;;;;;;4937116;28;88482;-93
2023/07/16 07:56:53;;;;;;;14.88;5.75;;;19.30;79.10;;;;;;4946363;28;87479;-96
2023/07/16 07:59:22;;;;;;;11.85;4.95;;;19.40;78.60;;;;;;4972780;22;85796;-82
2023/07/16 08:01:48;;;;;;;8.70;4.95;;;19.50;77.80;;;;;;4991100;28;86476;-82
2023/07/16 08:04:14;;;;;;;12.63;5.75;;;19.60;74.20;;;;;;4990048;28;87367;-84
2023/07/16 08:06:39;;;;;;;12.98;5.43;;;19.60;74.40;;;;;;4982417;28;90183;-86
2023/07/16 08:09:05;;;;;;;14.90;5.65;;;19.70;74.30;;;;;;4974078;28;86362;-87
2023/07/16 08:11:30;;;;;;;15.65;5.75;;;19.70;73.70;;;;;;4990929;28;86474;-84
2023/07/16 08:13:56;;;;;;;18.10;5.85;;;19.60;73.60;;;;;;4989282;28;87328;-85
2023/07/16 08:16:22;;;;;;;14.38;5.10;;;19.70;74.20;;;;;;4989614;28;86722;-86
2023/07/16 08:18:47;;;;;;;13.30;4.75;;;19.80;75.50;;;;;;4989776;28;86193;-83
2023/07/16 08:21:19;;;;;;;14.98;6.60;;;19.90;74.10;;;;;;4989236;28;86753;-86
2023/07/16 08:23:46;;;;;;;13.40;5.53;;;20.00;72.40;;;;;;4988106;28;88625;-85
2023/07/16 08:26:12;;;;;;;13.52;4.97;;;20.00;70.70;;;;;;4971775;28;90351;-85
2023/07/16 08:28:38;;;;;;;12.63;5.47;;;20.10;73.10;;;;;;4980521;28;86851;-87
2023/07/16 08:31:03;;;;;;;12.35;5.22;;;20.10;70.90;;;;;;4988872;28;86287;-87
2023/07/16 08:33:29;;;;;;;14.85;6.00;;;20.20;71.60;;;;;;4989052;28;87427;-85
2023/07/16 08:35:57;;;;;;;10.63;4.60;;;20.30;70.90;;;;;;4991403;28;86870;-83
2023/07/16 08:38:26;;;;;;;15.88;4.80;;;20.30;70.70;;;;;;4980438;28;86149;-87
2023/07/16 08:40:51;;;;;;;10.18;4.80;;;20.40;71.80;;;;;;4978220;28;85965;-84
2023/07/16 08:43:18;;;;;;;13.32;5.00;;;20.40;70.60;;;;;;4969248;28;89645;-83
2023/07/16 08:45:45;;;;;;;14.30;5.20;;;20.50;69.60;;;;;;4970277;28;90053;-83
2023/07/16 08:48:12;;;;;;;9.90;4.95;;;20.50;70.90;;;;;;4986780;28;85821;-83
2023/07/16 08:50:38;;;;;;;11.88;5.10;;;20.60;69.80;;;;;;4969692;28;86406;-84
2023/07/16 08:53:07;;;;;;;12.82;4.70;;;20.60;69.70;;;;;;4976432;28;90572;-83
2023/07/16 08:55:34;;;;;;;9.45;4.55;;;20.50;68.90;;;;;;4973735;28;89511;-85
2023/07/16 08:58:01;;;;;;;7.88;4.10;;;20.50;70.80;;;;;;4973032;28;86444;-83
2023/07/16 09:00:27;;;;;;;8.88;4.20;;;20.60;70.20;;;;;;4980654;28;86273;-84
2023/07/16 09:02:53;;;;;;;8.38;4.43;;;20.70;71.00;;;;;;4981738;28;90402;-84
2023/07/16 09:05:20;;;;;;;12.07;4.05;;;20.90;68.80;;;;;;4973904;28;89296;-81
2023/07/16 09:07:46;;;;;;;7.93;3.30;;;21.00;68.90;;;;;;4994248;28;86391;-81
2023/07/16 09:10:12;;;;;;;9.57;4.07;;;21.10;68.40;;;;;;4984312;28;86248;-81
2023/07/16 09:12:47;;;;;;;6.90;2.97;;;21.20;67.70;;;;;;4994540;28;86050;-85
2023/07/16 09:15:18;;;;;;;8.15;3.45;;;21.30;69.00;;;;;;4986979;28;87903;-82
2023/07/16 09:17:49;;;;;;;6.63;3.10;;;21.50;68.00;;;;;;4998580;28;85652;-81
2023/07/16 09:20:18;;;;;;;6.68;2.95;;;21.60;66.40;;;;;;4990310;28;86276;-82
2023/07/16 09:22:44;;;;;;;7.00;3.42;;;21.60;66.60;;;;;;4988975;28;87817;-83
2023/07/16 09:25:11;;;;;;;5.88;3.05;;;21.70;68.10;;;;;;4969879;28;87731;-82
2023/07/16 09:27:37;;;;;;;7.07;3.20;;;21.90;66.00;;;;;;4979456;28;86478;-82
2023/07/16 09:30:07;;;;;;;7.18;3.30;;;22.10;65.10;;;;;;4978341;28;85852;-82
2023/07/16 09:32:40;;;;;;;6.18;2.75;;;22.00;63.80;;;;;;4985111;28;90878;-83
2023/07/16 09:35:11;;;;;;;8.43;3.28;;;21.90;64.50;;;;;;4975087;28;88545;-83
2023/07/16 09:37:40;;;;;;;8.48;2.88;;;21.90;64.80;;;;;;4974947;28;86875;-84
2023/07/16 09:40:10;;;;;;;5.82;2.70;;;22.00;66.80;;;;;;4974052;28;86268;-84
2023/07/16 09:42:43;;;;;;;6.60;2.55;;;22.20;63.10;;;;;;4978456;28;88016;-84
2023/07/16 09:45:18;;;;;;;7.00;2.65;;;22.10;63.60;;;;;;4983815;28;89151;-84
2023/07/16 09:47:44;;;;;;;7.72;2.58;;;22.00;62.50;;;;;;4988306;28;86054;-84
2023/07/16 09:50:11;;;;;;;6.30;2.60;;;21.80;63.30;;;;;;4974578;28;86693;-83
2023/07/16 09:52:37;;;;;;;5.18;2.50;;;21.80;64.20;;;;;;4984787;28;88406;-83
2023/07/16 09:55:04;;;;;;;4.70;2.20;;;21.80;64.20;;;;;;4983607;28;88105;-82
2023/07/16 09:57:38;;;;;;;3.95;2.17;;;21.90;64.40;;;;;;4977777;28;86448;-83
2023/07/16 10:00:12;;;;;;;5.97;2.65;;;22.00;65.60;;;;;;4980903;28;86324;-82
2023/07/16 10:02:38;;;;;;;7.07;2.90;;;22.20;64.90;;;;;;4973296;28;88516;-83
2023/07/16 10:05:12;;;;;;;7.90;2.83;;;22.30;63.80;;;;;;4989457;28;89890;-85
2023/07/16 10:07:39;;;;;;;4.00;2.05;;;22.30;61.10;;;;;;4973935;28;87508;-84
2023/07/16 10:10:09;;;;;;;6.20;2.25;;;22.20;60.90;;;;;;4971973;28;86071;-84
2023/07/16 10:12:35;;;;;;;7.55;2.15;;;22.10;61.40;;;;;;4981860;28;89250;-85
2023/07/16 10:15:03;;;;;;;7.22;2.30;;;22.10;62.50;;;;;;4982363;28;88903;-83
2023/07/16 10:17:30;;;;;;;6.03;2.50;;;22.10;61.20;;;;;;4981208;28;86448;-83
2023/07/16 10:19:58;;;;;;;5.90;2.20;;;22.20;61.40;;;;;;4991881;28;86466;-84
2023/07/16 10:22:36;;;;;;;6.65;2.20;;;22.20;61.90;;;;;;4977846;28;90175;-84
2023/07/16 10:25:17;;;;;;;5.68;2.30;;;22.30;62.80;;;;;;4973754;28;87437;-83
2023/07/16 10:27:45;;;;;;;8.15;2.95;;;22.30;61.80;;;;;;4974797;28;85822;-84
2023/07/16 10:30:11;;;;;;;7.95;2.92;;;22.30;61.40;;;;;;4976039;28;85958;-85
2023/07/16 10:32:37;;;;;;;6.22;2.67;;;22.30;61.00;;;;;;4982161;28;90821;-83
2023/07/16 10:35:05;;;;;;;5.70;2.78;;;22.30;62.60;;;;;;4981808;28;90150;-81
2023/07/16 10:37:34;;;;;;;6.40;2.25;;;22.30;60.90;;;;;;4983894;28;85891;-82
2023/07/16 10:40:04;;;;;;;6.93;2.53;;;22.20;61.20;;;;;;4985506;28;85937;-83
2023/07/16 10:42:30;;;;;;;6.43;2.80;;;22.20;61.60;;;;;;4982034;28;88813;-82
2023/07/16 10:45:03;;;;;;;6.88;2.85;;;22.20;62.30;;;;;;4981237;28;89761;-84
2023/07/16 10:47:34;;;;;;;6.80;2.65;;;22.20;61.50;;;;;;4981018;28;86088;-82
2023/07/16 10:50:27;;;;;;;5.57;2.08;;;22.30;60.30;;;;;;4980146;28;85938;-82
2023/07/16 10:53:00;;;;;;;6.57;2.70;;;22.30;61.50;;;;;;4974423;28;85914;-84
2023/07/16 10:55:53;;;;;;;5.75;2.50;;;22.40;60.00;;;;;;4981060;28;87410;-85
2023/07/16 10:58:40;;;;;;;6.70;2.90;;;22.40;60.30;;;;;;4914838;28;88913;-84
2023/07/16 11:01:48;;;;;;;5.93;2.50;;;22.40;59.80;;;;;;4971869;28;86418;-84
2023/07/16 11:05:15;;;;;;;8.63;2.58;;;22.50;61.00;;;;;;4909551;28;88817;-84
2023/07/16 11:07:45;;;;;;;7.47;2.67;;;22.90;62.30;;;;;;4956589;28;92186;-83
2023/07/16 11:10:11;;;;;;;7.13;2.97;;;23.30;59.50;;;;;;4990220;28;86033;-80
2023/07/16 11:12:54;;;;;;;4.03;2.28;;;23.40;60.50;;;;;;4988596;28;86138;-82
2023/07/16 11:15:32;;;;;;;7.50;3.20;;;23.50;56.60;;;;;;4994387;28;87130;-83
2023/07/16 11:17:57;;;;;;;6.00;2.60;;;23.30;57.00;;;;;;4972383;28;89130;-83
2023/07/16 11:20:23;;;;;;;5.35;2.40;;;23.20;57.80;;;;;;4979279;28;86404;-82
2023/07/16 11:22:49;;;;;;;6.47;2.42;;;23.10;58.60;;;;;;4979305;28;86218;-83
2023/07/16 11:25:14;;;;;;;4.75;2.40;;;23.20;58.90;;;;;;4976537;28;94280;-83
2023/07/16 11:27:42;;;;;;;7.55;3.47;;;23.30;58.10;;;;;;4979099;28;90567;-85
2023/07/16 11:30:08;;;;;;;7.18;3.10;;;23.20;58.70;;;;;;4988758;28;86326;-86
2023/07/16 11:32:52;;;;;;;5.38;2.20;;;23.20;57.20;;;;;;4967343;28;86258;-83
2023/07/16 11:35:19;;;;;;;5.20;2.63;;;23.10;58.00;;;;;;4974987;28;90088;-84
2023/07/16 11:37:45;;;;;;;4.85;2.80;;;22.90;58.00;;;;;;4980948;28;88050;-84
2023/07/16 11:40:22;;;;;;;7.82;2.78;;;22.90;57.10;;;;;;4989885;28;86014;-81
2023/07/16 11:42:47;;;;;;;5.70;2.38;;;22.90;58.10;;;;;;4977732;28;86376;-81
2023/07/16 11:45:25;;;;;;;6.50;2.38;;;22.90;58.90;;;;;;4986080;28;89817;-81
2023/07/16 11:47:51;;;;;;;10.55;2.50;;;23.00;58.70;;;;;;4974431;28;88324;-81
2023/07/16 11:50:16;;;;;;;4.63;2.13;;;23.10;56.80;;;;;;4971177;28;87109;-81
2023/07/16 11:52:42;;;;;;;5.22;2.83;;;23.10;58.00;;;;;;4979454;28;86040;-81
2023/07/16 11:55:08;;;;;;;7.45;2.65;;;23.20;58.20;;;;;;4981884;28;89460;-80
2023/07/16 11:57:35;;;;;;;5.30;2.45;;;23.30;58.60;;;;;;4994109;28;88532;-81
2023/07/16 12:00:01;;;;;;;6.88;2.60;;;23.30;57.30;;;;;;4982005;28;86155;-82
2023/07/16 12:02:28;;;;;;;4.25;2.50;;;23.40;57.40;;;;;;4990387;28;86473;-82
2023/07/16 12:04:54;;;;;;;5.75;2.33;;;23.40;56.90;;;;;;4983742;28;89865;-81
2023/07/16 12:07:35;;;;;;;7.82;2.95;;;23.40;57.90;;;;;;4975357;28;88590;-81
2023/07/16 12:10:06;;;;;;;6.47;2.58;;;23.60;57.50;;;;;;4980712;28;86312;-81
2023/07/16 12:12:32;;;;;;;10.48;3.67;;;23.80;56.70;;;;;;4992178;28;86608;-81
2023/07/16 12:14:57;;;;;;;6.53;2.38;;;24.00;57.30;;;;;;4988639;28;90585;-81
2023/07/16 12:17:23;;;;;;;5.63;2.25;;;24.20;56.20;;;;;;4971995;28;89555;-80
2023/07/16 12:19:49;;;;;;;5.18;2.30;;;24.40;55.70;;;;;;4980615;28;86927;-80
2023/07/16 12:22:17;;;;;;;8.23;2.78;;;24.50;55.50;;;;;;4971500;28;87708;-80
2023/07/16 12:24:43;;;;;;;4.53;2.60;;;24.70;56.20;;;;;;4971717;28;87558;-80
2023/07/16 12:27:09;;;;;;;7.40;2.78;;;24.80;55.40;;;;;;4979296;28;89684;-81
2023/07/16 12:29:34;;;;;;;9.10;2.60;;;25.00;54.90;;;;;;4979831;28;86437;-80
2023/07/16 12:32:00;;;;;;;6.15;2.70;;;25.10;54.10;;;;;;4991262;28;86331;-83
2023/07/16 12:34:26;;;;;;;4.50;2.40;;;25.00;52.60;;;;;;4973381;28;89866;-81
2023/07/16 12:36:51;;;;;;;9.05;3.35;;;25.10;53.30;;;;;;4969811;28;89445;-81
2023/07/16 12:39:17;;;;;;;4.10;2.40;;;25.00;53.40;;;;;;4972694;28;86707;-81
2023/07/16 12:41:43;;;;;;;6.85;2.72;;;24.80;54.40;;;;;;4969059;28;86272;-83
2023/07/16 12:44:09;;;;;;;6.18;2.55;;;24.80;54.40;;;;;;4974674;28;88230;-81
2023/07/16 12:46:35;;;;;;;6.93;2.83;;;24.70;53.60;;;;;;4972467;28;87649;-81
2023/07/16 12:49:00;;;;;;;5.63;2.58;;;24.50;53.70;;;;;;4979389;28;86542;-81
2023/07/16 12:51:26;;;;;;;6.78;3.10;;;24.50;54.70;;;;;;4972783;28;86021;-81
2023/07/16 12:53:52;;;;;;;7.30;2.53;;;24.60;58.20;;;;;;4979084;28;90100;-81
2023/07/16 12:56:17;;;;;;;7.15;2.83;;;24.80;54.20;;;;;;4972077;28;88357;-83
2023/07/16 12:58:43;;;;;;;8.27;2.70;;;24.90;52.80;;;;;;4978682;28;86649;-81